createdAt,value
2022-09-25T00:01:17.218Z,75425.88
2022-09-25T00:03:45.139Z,75427.91
2022-09-25T00:06:16.176Z,75423.84
2022-09-25T00:08:44.396Z,75427.91
2022-09-25T00:11:14.148Z,75440.13
2022-09-25T00:13:44.450Z,75429.94
2022-09-25T00:16:14.169Z,75425.88
2022-09-25T00:19:00.901Z,75427.91
2022-09-25T00:21:31.318Z,75423.84
2022-09-25T00:24:00.546Z,75427.91
2022-09-25T00:26:29.688Z,75421.78
2022-09-25T00:28:57.627Z,75421.78
2022-09-25T00:31:25.903Z,75425.88
2022-09-25T00:33:58.001Z,75425.88
2022-09-25T00:36:26.218Z,75429.94
2022-09-25T00:38:54.636Z,75429.94
2022-09-25T00:41:25.814Z,75434.03
2022-09-25T00:43:56.332Z,75434.03
2022-09-25T00:46:28.747Z,75438.09
2022-09-25T00:49:01.872Z,75438.09
2022-09-25T00:51:34.884Z,75440.13
2022-09-25T00:54:05.332Z,75427.91
2022-09-25T00:56:37.858Z,75425.88
2022-09-25T00:59:09.069Z,75429.94
2022-09-25T01:01:36.973Z,75429.94
2022-09-25T01:04:06.862Z,75429.94
2022-09-25T01:06:36.107Z,75413.66
2022-09-25T01:09:03.935Z,75409.56
2022-09-25T01:11:32.141Z,75403.44
2022-09-25T01:14:03.364Z,75413.66
2022-09-25T01:16:39.191Z,75407.53
2022-09-25T01:19:24.885Z,75409.56
2022-09-25T01:21:55.644Z,75405.50
2022-09-25T01:24:57.460Z,75413.66
2022-09-25T01:27:43.816Z,75415.69
2022-09-25T01:30:14.649Z,75415.69
2022-09-25T01:32:57.390Z,75421.78
2022-09-25T01:35:37.601Z,75421.78
2022-09-25T01:38:15.204Z,75429.94
2022-09-25T01:40:49.467Z,75440.13
2022-09-25T01:43:21.354Z,75442.19
2022-09-25T01:45:53.639Z,75429.94
2022-09-25T01:48:26.889Z,75434.03
2022-09-25T01:51:00.140Z,75429.94
2022-09-25T01:53:32.521Z,75429.94
2022-09-25T01:56:05.574Z,75427.91
2022-09-25T01:58:37.013Z,75432.00
2022-09-25T02:01:11.632Z,75434.03
2022-09-25T02:03:45.044Z,75434.03
2022-09-25T02:06:19.731Z,75434.03
2022-09-25T02:08:53.937Z,75434.03
2022-09-25T02:11:22.096Z,75434.03
2022-09-25T02:13:54.545Z,75421.78
2022-09-25T02:16:29.076Z,75425.88
2022-09-25T02:19:14.273Z,75419.75
2022-09-25T02:21:50.253Z,75432.00
2022-09-25T02:24:23.275Z,75429.94
2022-09-25T02:26:52.386Z,75423.84
2022-09-25T02:29:21.361Z,75421.78
2022-09-25T02:31:55.085Z,75417.72
2022-09-25T02:34:24.255Z,75421.78
2022-09-25T02:36:52.145Z,75423.84
2022-09-25T02:39:23.133Z,75421.78
2022-09-25T02:42:10.305Z,75421.78
2022-09-25T02:45:04.689Z,75421.78
2022-09-25T02:47:38.852Z,75425.88
2022-09-25T02:50:16.925Z,75425.88
2022-09-25T02:52:51.093Z,75419.75
2022-09-25T02:55:25.512Z,75425.88
2022-09-25T02:57:57.085Z,75425.88
2022-09-25T03:00:25.103Z,75425.88
2022-09-25T03:02:59.593Z,75429.94
2022-09-25T03:05:27.648Z,75425.88
2022-09-25T03:08:13.744Z,75429.94
2022-09-25T03:10:41.997Z,75427.91
2022-09-25T03:13:18.605Z,75429.94
2022-09-25T03:15:49.811Z,75429.94
2022-09-25T03:18:19.229Z,75429.94
2022-09-25T03:20:47.048Z,75434.03
2022-09-25T03:23:15.506Z,75432.00
2022-09-25T03:25:49.041Z,75429.94
2022-09-25T03:28:17.873Z,75434.03
2022-09-25T03:30:46.092Z,75427.91
2022-09-25T03:33:14.596Z,75425.88
2022-09-25T03:35:43.757Z,75423.84
2022-09-25T03:38:12.519Z,75421.78
2022-09-25T03:40:41.409Z,75415.69
2022-09-25T03:45:36.041Z,75419.75
2022-09-25T03:48:03.823Z,75417.72
2022-09-25T03:50:31.617Z,75413.66
2022-09-25T03:53:00.844Z,75409.56
2022-09-25T03:55:28.633Z,75407.53
2022-09-25T03:57:56.508Z,75409.56
2022-09-25T04:00:24.908Z,75409.56
2022-09-25T04:02:52.759Z,75413.66
2022-09-25T04:05:21.390Z,75409.56
2022-09-25T04:07:49.248Z,75409.56
2022-09-25T04:10:18.398Z,75411.59
2022-09-25T04:12:46.180Z,75411.59
2022-09-25T04:15:15.298Z,75413.66
2022-09-25T04:17:43.089Z,75417.72
2022-09-25T04:20:11.093Z,75425.88
2022-09-25T04:22:38.961Z,75423.84
2022-09-25T04:25:07.634Z,75421.78
2022-09-25T04:27:37.746Z,75417.72
2022-09-25T04:30:06.769Z,75421.78
2022-09-25T04:32:52.022Z,75419.75
2022-09-25T04:35:19.875Z,75419.75
2022-09-25T04:37:47.691Z,75421.78
2022-09-25T04:40:15.919Z,75417.72
2022-09-25T04:42:45.182Z,75423.84
2022-09-25T04:45:13.057Z,75425.88
2022-09-25T04:47:40.874Z,75421.78
2022-09-25T04:50:09.514Z,75413.66
2022-09-25T04:52:37.296Z,75417.72
2022-09-25T04:55:05.651Z,75413.66
2022-09-25T04:57:57.117Z,75417.72
2022-09-25T05:00:24.297Z,75413.66
2022-09-25T05:02:52.696Z,75413.66
2022-09-25T05:05:20.886Z,75409.56
2022-09-25T05:07:52.666Z,75411.59
2022-09-25T05:10:20.906Z,75417.72
2022-09-25T05:12:49.039Z,75429.94
2022-09-25T05:15:17.985Z,75425.88
2022-09-25T05:17:47.189Z,75427.91
2022-09-25T05:20:15.205Z,75425.88
2022-09-25T05:22:43.006Z,75425.88
2022-09-25T05:25:11.452Z,75425.88
2022-09-25T05:27:39.251Z,75432.00
2022-09-25T05:30:11.192Z,75429.94
2022-09-25T05:32:39.045Z,75427.91
2022-09-25T05:35:09.208Z,75432.00
2022-09-25T05:37:37.146Z,75429.94
2022-09-25T05:40:05.734Z,75429.94
2022-09-25T05:42:34.992Z,75432.00
2022-09-25T05:45:07.357Z,75423.84
2022-09-25T05:47:35.554Z,75425.88
2022-09-25T05:50:04.695Z,75427.91
2022-09-25T05:52:34.028Z,75421.78
2022-09-25T05:55:03.342Z,75423.84
2022-09-25T05:57:32.037Z,75413.66
2022-09-25T06:00:00.105Z,75409.56
2022-09-25T06:02:28.196Z,75413.66
2022-09-25T06:04:56.119Z,75419.75
2022-09-25T06:07:23.893Z,75417.72
2022-09-25T06:09:53.102Z,75429.94
2022-09-25T06:12:23.117Z,75421.78
2022-09-25T06:14:51.717Z,75421.78
2022-09-25T06:17:19.672Z,75421.78
2022-09-25T06:19:47.548Z,75429.94
2022-09-25T06:22:15.561Z,75421.78
2022-09-25T06:24:43.442Z,75417.72
2022-09-25T06:27:12.583Z,75417.72
2022-09-25T06:29:40.377Z,75415.69
2022-09-25T06:32:08.227Z,75413.66
2022-09-25T06:34:36.032Z,75407.53
2022-09-25T06:37:03.846Z,75405.50
2022-09-25T06:39:33.302Z,75403.44
2022-09-25T06:42:01.277Z,75393.25
2022-09-25T06:44:30.590Z,75385.09
2022-09-25T06:46:59.807Z,75383.06
2022-09-25T06:49:27.743Z,75385.09
2022-09-25T06:51:55.980Z,75372.88
2022-09-25T06:54:23.865Z,75362.69
2022-09-25T06:56:51.671Z,75360.66
2022-09-25T06:59:19.714Z,75354.53
2022-09-25T07:01:49.085Z,75344.34
2022-09-25T07:04:16.503Z,75340.25
2022-09-25T07:06:45.334Z,75338.22
2022-09-25T07:09:13.651Z,75340.25
2022-09-25T07:11:44.110Z,75328.03
2022-09-25T07:14:12.526Z,75323.94
2022-09-25T07:16:41.136Z,75315.81
2022-09-25T07:19:11.765Z,75309.69
2022-09-25T07:21:40.221Z,75307.66
2022-09-25T07:24:09.329Z,75283.19
2022-09-25T07:26:42.338Z,75262.81
2022-09-25T07:29:11.044Z,75256.69
2022-09-25T07:31:39.077Z,75248.53
2022-09-25T07:34:09.486Z,75238.34
2022-09-25T07:36:42.594Z,75217.97
2022-09-25T07:39:14.788Z,75209.81
2022-09-25T07:41:45.633Z,75205.72
2022-09-25T07:44:33.497Z,75201.66
2022-09-25T07:47:03.814Z,75213.88
2022-09-25T07:49:32.091Z,75226.13
2022-09-25T07:52:01.535Z,75213.88
2022-09-25T07:54:29.472Z,75205.72
2022-09-25T07:56:57.263Z,75197.56
2022-09-25T07:59:25.271Z,75189.44
2022-09-25T08:01:54.277Z,75189.44
2022-09-25T08:04:22.499Z,75179.25
2022-09-25T08:06:50.320Z,75205.72
2022-09-25T08:09:19.517Z,75209.81
2022-09-25T08:11:47.370Z,75197.56
2022-09-25T08:14:15.823Z,75201.66
2022-09-25T08:16:44.039Z,75213.88
2022-09-25T08:19:12.971Z,75217.97
2022-09-25T08:21:40.797Z,75226.13
2022-09-25T08:24:08.837Z,75232.22
2022-09-25T08:26:38.315Z,75238.34
2022-09-25T08:29:06.999Z,75230.19
2022-09-25T08:31:35.657Z,75224.06
2022-09-25T08:34:28.101Z,75234.28
2022-09-25T08:36:51.906Z,75244.47
2022-09-25T08:39:19.805Z,75238.34
2022-09-25T08:41:51.367Z,75222.03
2022-09-25T08:44:25.303Z,75209.81
2022-09-25T08:47:19.659Z,75209.81
2022-09-25T08:49:54.580Z,75203.69
2022-09-25T08:52:23.047Z,75213.88
2022-09-25T08:54:54.598Z,75220.00
2022-09-25T08:57:35.044Z,75217.97
2022-09-25T09:00:08.990Z,75217.97
2022-09-25T09:02:43.839Z,75224.06
2022-09-25T09:05:18.737Z,75220.00
2022-09-25T09:07:51.021Z,75217.97
2022-09-25T09:10:29.866Z,75217.97
2022-09-25T09:13:07.124Z,75203.69
2022-09-25T09:15:38.922Z,75189.44
2022-09-25T09:18:20.385Z,75183.31
2022-09-25T09:20:53.794Z,75179.25
2022-09-25T09:23:24.135Z,75136.44
2022-09-25T09:26:02.522Z,75124.19
2022-09-25T09:28:58.968Z,75130.31
2022-09-25T09:31:31.893Z,75132.34
2022-09-25T09:34:12.655Z,75128.28
2022-09-25T09:36:49.886Z,75126.25
2022-09-25T09:39:24.998Z,75138.47
2022-09-25T09:42:03.718Z,75132.34
2022-09-25T09:44:51.343Z,75132.34
2022-09-25T09:47:39.660Z,75136.44
2022-09-25T09:50:32.763Z,75132.34
2022-09-25T09:53:05.013Z,75136.44
2022-09-25T09:55:40.414Z,75124.19
2022-09-25T09:58:19.291Z,75120.13
2022-09-25T10:00:50.158Z,75116.06
2022-09-25T10:03:23.298Z,75107.91
2022-09-25T10:05:56.302Z,75101.78
2022-09-25T10:08:24.183Z,75095.66
2022-09-25T10:10:54.855Z,75079.38
2022-09-25T10:13:32.497Z,75075.28
2022-09-25T10:16:05.891Z,75071.22
2022-09-25T10:18:40.943Z,75058.97
2022-09-25T10:21:15.072Z,75050.81
2022-09-25T10:23:49.609Z,75052.88
2022-09-25T10:26:28.947Z,75042.69
2022-09-25T10:28:58.533Z,75038.59
2022-09-25T10:31:31.471Z,75022.28
2022-09-25T10:34:05.809Z,75014.13
2022-09-25T10:36:37.369Z,74969.31
2022-09-25T10:39:39.110Z,74932.63
2022-09-25T10:41:55.314Z,74887.78
2022-09-25T10:44:29.271Z,74847.00
2022-09-25T10:47:35.838Z,74867.41
2022-09-25T10:50:13.285Z,74900.00
2022-09-25T10:52:52.970Z,74879.63
2022-09-25T10:55:28.752Z,74883.69
2022-09-25T10:58:05.968Z,74875.56
2022-09-25T11:00:42.635Z,74824.59
2022-09-25T11:03:21.151Z,74798.09
2022-09-25T11:05:56.400Z,74773.66
2022-09-25T11:08:29.567Z,74789.94
2022-09-25T11:10:59.668Z,74806.25
2022-09-25T11:13:30.462Z,74818.47
2022-09-25T11:16:01.269Z,74789.94
2022-09-25T11:18:37.527Z,74759.38
2022-09-25T11:21:17.839Z,74716.59
2022-09-25T11:24:01.213Z,74681.94
2022-09-25T11:26:34.383Z,74710.47
2022-09-25T11:29:12.492Z,74718.63
2022-09-25T11:31:43.640Z,74720.66
2022-09-25T11:34:20.321Z,74736.97
2022-09-25T11:36:56.093Z,74734.94
2022-09-25T11:39:46.127Z,74716.59
2022-09-25T11:42:25.424Z,74688.06
2022-09-25T11:45:01.493Z,74667.69
2022-09-25T11:47:33.125Z,74667.69
2022-09-25T11:50:03.187Z,74643.22
2022-09-25T11:52:41.049Z,74643.22
2022-09-25T11:55:48.128Z,74620.81
2022-09-25T11:58:47.194Z,74602.47
2022-09-25T12:01:26.726Z,74602.47
2022-09-25T12:04:09.115Z,74590.22
2022-09-25T12:06:56.441Z,74553.56
2022-09-25T12:09:41.652Z,74545.41
2022-09-25T12:12:17.869Z,74553.56
2022-09-25T12:14:53.517Z,74543.34
2022-09-25T12:17:28.598Z,74537.25
2022-09-25T12:20:02.907Z,74573.94
2022-09-25T12:22:43.523Z,74602.47
2022-09-25T12:25:28.929Z,74624.88
2022-09-25T12:28:04.339Z,74631.00
2022-09-25T12:30:40.989Z,74641.19
2022-09-25T12:33:28.029Z,74633.03
2022-09-25T12:36:00.561Z,74622.84
2022-09-25T12:38:36.314Z,74598.38
2022-09-25T12:41:12.429Z,74553.56
2022-09-25T12:43:47.679Z,74569.84
2022-09-25T12:46:23.481Z,74553.56
2022-09-25T12:48:56.016Z,74545.41
2022-09-25T12:51:28.209Z,74555.59
2022-09-25T12:53:59.985Z,74578.00
2022-09-25T12:56:34.736Z,74606.53
2022-09-25T12:59:11.173Z,74626.91
2022-09-25T13:01:48.223Z,74618.75
2022-09-25T13:04:39.062Z,74614.69
2022-09-25T13:07:15.761Z,74612.66
2022-09-25T13:09:45.978Z,74614.69
2022-09-25T13:12:25.841Z,74608.56
2022-09-25T13:14:57.493Z,74586.16
2022-09-25T13:17:25.449Z,74584.13
2022-09-25T13:19:53.589Z,74586.16
2022-09-25T13:22:24.882Z,74573.94
2022-09-25T13:24:56.426Z,74582.09
2022-09-25T13:27:26.876Z,74606.53
2022-09-25T13:29:58.464Z,74612.66
2022-09-25T13:32:31.865Z,74618.75
2022-09-25T13:35:04.501Z,74610.63
2022-09-25T13:37:35.317Z,74614.69
2022-09-25T13:40:35.157Z,74610.63
2022-09-25T13:46:28.113Z,74602.47
2022-09-25T13:49:36.748Z,74602.47
2022-09-25T13:52:05.034Z,74602.47
2022-09-25T13:54:34.446Z,74618.75
2022-09-25T13:57:03.950Z,74618.75
2022-09-25T13:59:40.838Z,74612.66
2022-09-25T14:02:39.578Z,74602.47
2022-09-25T14:05:17.656Z,74602.47
2022-09-25T14:07:49.475Z,74596.34
2022-09-25T14:10:18.894Z,74604.50
2022-09-25T14:12:48.963Z,74620.81
2022-09-25T14:15:30.389Z,74622.84
2022-09-25T14:18:00.954Z,74622.84
2022-09-25T14:20:37.358Z,74631.00
2022-09-25T14:23:08.206Z,74631.00
2022-09-25T14:25:38.990Z,74624.88
2022-09-25T14:28:19.947Z,74626.91
2022-09-25T14:31:07.000Z,74616.72
2022-09-25T14:33:50.924Z,74614.69
2022-09-25T14:36:28.311Z,74614.69
2022-09-25T14:39:09.308Z,74633.03
2022-09-25T14:42:06.864Z,74626.91
2022-09-25T14:45:12.494Z,74626.91
2022-09-25T14:47:44.552Z,74622.84
2022-09-25T14:50:20.843Z,74631.00
2022-09-25T14:52:54.315Z,74647.28
2022-09-25T14:55:24.582Z,74659.53
2022-09-25T14:57:52.938Z,74667.69
2022-09-25T15:00:24.576Z,74669.72
2022-09-25T15:02:56.056Z,74683.97
2022-09-25T15:05:32.797Z,74688.06
2022-09-25T15:08:03.597Z,74688.06
2022-09-25T15:10:33.822Z,74692.13
2022-09-25T15:13:09.774Z,74692.13
2022-09-25T15:15:39.950Z,74694.16
2022-09-25T15:18:13.618Z,74688.06
2022-09-25T15:20:48.186Z,74694.16
2022-09-25T15:23:20.200Z,74704.34
2022-09-25T15:25:50.614Z,74716.59
2022-09-25T15:28:22.360Z,74716.59
2022-09-25T15:30:57.467Z,74724.75
2022-09-25T15:33:29.175Z,74728.81
2022-09-25T15:35:57.891Z,74743.06
2022-09-25T15:38:35.857Z,74753.28
2022-09-25T15:41:09.235Z,74765.50
2022-09-25T15:43:37.115Z,74773.66
2022-09-25T15:46:35.806Z,74769.56
2022-09-25T15:49:04.594Z,74777.72
2022-09-25T15:51:35.658Z,74781.81
2022-09-25T15:54:08.281Z,74789.94
2022-09-25T15:56:45.310Z,74800.16
2022-09-25T15:59:20.375Z,74814.41
2022-09-25T16:02:06.634Z,74826.63
2022-09-25T16:04:54.661Z,74830.72
2022-09-25T16:07:30.656Z,74836.81
2022-09-25T16:10:03.267Z,74842.94
2022-09-25T16:12:35.430Z,74840.91
2022-09-25T16:15:54.512Z,74853.13
2022-09-25T16:18:35.263Z,74859.25
2022-09-25T16:21:23.579Z,74869.44
2022-09-25T16:23:57.819Z,74877.59
2022-09-25T16:26:36.461Z,74877.59
2022-09-25T16:29:09.977Z,74883.69
2022-09-25T16:31:39.308Z,74883.69
2022-09-25T16:34:11.131Z,74891.84
2022-09-25T16:36:40.889Z,74893.91
2022-09-25T16:39:28.608Z,74906.13
2022-09-25T16:41:59.981Z,74910.19
2022-09-25T16:44:46.744Z,74914.28
2022-09-25T16:47:17.852Z,74924.47
2022-09-25T16:49:46.306Z,74928.53
2022-09-25T16:52:21.760Z,74936.69
2022-09-25T16:54:54.429Z,74942.81
2022-09-25T16:57:25.332Z,74938.72
2022-09-25T16:59:53.634Z,74934.66
2022-09-25T17:02:33.004Z,74944.84
2022-09-25T17:05:03.847Z,74948.91
2022-09-25T17:07:31.698Z,74946.88
2022-09-25T17:10:00.989Z,74948.91
2022-09-25T17:12:32.492Z,74961.16
2022-09-25T17:15:00.630Z,74963.19
2022-09-25T17:17:29.725Z,74965.22
2022-09-25T17:19:57.755Z,74944.84
2022-09-25T17:22:30.109Z,74944.84
2022-09-25T17:25:01.924Z,74961.16
2022-09-25T17:27:31.158Z,74965.22
2022-09-25T17:29:59.052Z,74969.31
2022-09-25T17:32:27.020Z,74969.31
2022-09-25T17:34:57.562Z,74973.38
2022-09-25T17:37:25.447Z,74936.69
2022-09-25T17:39:53.243Z,74922.44
2022-09-25T17:42:21.262Z,74944.84
2022-09-25T17:44:50.500Z,74963.19
2022-09-25T17:47:18.322Z,74973.38
2022-09-25T17:49:46.371Z,74977.47
2022-09-25T17:52:17.557Z,74981.53
2022-09-25T17:54:45.775Z,74981.53
2022-09-25T17:57:13.563Z,74981.53
2022-09-25T17:59:41.482Z,74987.66
2022-09-25T18:02:16.945Z,74997.84
2022-09-25T18:04:45.702Z,75006.00
2022-09-25T18:07:14.348Z,75010.06
2022-09-25T18:09:42.138Z,75001.91
2022-09-25T18:12:10.250Z,75006.00
2022-09-25T18:14:38.042Z,75008.03
2022-09-25T18:17:05.868Z,75001.91
2022-09-25T18:19:52.481Z,74999.88
2022-09-25T18:22:21.721Z,74997.84
2022-09-25T18:24:54.288Z,75010.06
2022-09-25T18:27:22.422Z,75022.28
2022-09-25T18:29:50.572Z,75022.28
2022-09-25T18:32:18.377Z,75018.22
2022-09-25T18:34:47.608Z,75018.22
2022-09-25T18:37:15.809Z,75022.28
2022-09-25T18:39:44.568Z,75018.22
2022-09-25T18:42:12.504Z,75018.22
2022-09-25T18:44:43.063Z,75022.28
2022-09-25T18:47:11.523Z,75030.44
2022-09-25T18:49:39.463Z,75034.53
2022-09-25T18:52:08.827Z,75048.78
2022-09-25T18:54:36.821Z,75054.91
2022-09-25T18:57:04.820Z,75048.78
2022-09-25T18:59:32.647Z,75054.91
2022-09-25T19:02:01.072Z,75056.94
2022-09-25T19:04:29.111Z,75058.97
2022-09-25T19:06:57.169Z,75058.97
2022-09-25T19:09:28.049Z,75054.91
2022-09-25T19:11:56.181Z,75058.97
2022-09-25T19:14:24.501Z,75058.97
2022-09-25T19:16:53.172Z,75063.06
2022-09-25T19:19:21.209Z,75063.06
2022-09-25T19:21:49.349Z,75058.97
2022-09-25T19:24:18.303Z,75054.91
2022-09-25T19:26:48.109Z,75050.81
2022-09-25T19:29:16.192Z,75056.94
2022-09-25T19:31:45.223Z,75054.91
2022-09-25T19:34:13.249Z,75058.97
2022-09-25T19:36:41.135Z,75058.97
2022-09-25T19:39:09.003Z,75044.72
2022-09-25T19:41:39.118Z,75063.06
2022-09-25T19:44:13.655Z,75067.13
2022-09-25T19:46:42.865Z,75079.38
2022-09-25T19:49:11.251Z,75081.41
2022-09-25T19:51:39.784Z,75081.41
2022-09-25T19:54:08.571Z,75081.41
2022-09-25T19:56:40.644Z,75087.50
2022-09-25T19:59:14.201Z,75093.63
2022-09-25T20:01:43.947Z,75087.50
2022-09-25T20:04:17.993Z,75083.44
2022-09-25T20:06:47.098Z,75081.41
2022-09-25T20:09:15.704Z,75087.50
2022-09-25T20:11:43.877Z,75083.44
2022-09-25T20:14:13.620Z,75075.28
2022-09-25T20:16:41.827Z,75077.31
2022-09-25T20:19:11.637Z,75079.38
2022-09-25T20:21:41.496Z,75085.47
2022-09-25T20:24:10.521Z,75079.38
2022-09-25T20:26:38.378Z,75077.31
2022-09-25T20:29:10.048Z,75079.38
2022-09-25T20:31:40.822Z,75087.50
2022-09-25T20:34:12.966Z,75087.50
2022-09-25T20:36:41.183Z,75091.59
2022-09-25T20:39:09.635Z,75093.63
2022-09-25T20:41:37.843Z,75095.66
2022-09-25T20:44:06.405Z,75091.59
2022-09-25T20:46:34.940Z,75095.66
2022-09-25T20:49:04.607Z,75099.75
2022-09-25T20:51:35.313Z,75103.81
2022-09-25T20:54:06.255Z,75099.75
2022-09-25T20:56:35.617Z,75099.75
2022-09-25T20:59:04.101Z,75095.66
2022-09-25T21:01:34.552Z,75091.59
2022-09-25T21:04:07.927Z,75095.66
2022-09-25T21:06:39.359Z,75083.44
2022-09-25T21:09:09.931Z,75081.41
2022-09-25T21:11:40.396Z,75083.44
2022-09-25T21:14:13.007Z,75079.38
2022-09-25T21:16:41.363Z,75093.63
2022-09-25T21:19:14.688Z,75085.47
2022-09-25T21:21:42.931Z,75087.50
2022-09-25T21:24:14.050Z,75093.63
2022-09-25T21:26:42.729Z,75093.63
2022-09-25T21:29:13.011Z,75093.63
2022-09-25T21:31:48.205Z,75093.63
2022-09-25T21:34:19.724Z,75095.66
2022-09-25T21:36:48.242Z,75091.59
2022-09-25T21:39:16.192Z,75087.50
2022-09-25T21:41:44.354Z,75091.59
2022-09-25T21:44:15.109Z,75083.44
2022-09-25T21:46:43.416Z,75087.50
2022-09-25T21:49:16.363Z,75091.59
2022-09-25T21:51:46.564Z,75081.41
2022-09-25T21:54:15.451Z,75083.44
2022-09-25T21:56:44.385Z,75085.47
2022-09-25T21:59:12.523Z,75093.63
2022-09-25T22:01:40.946Z,75087.50
2022-09-25T22:04:12.544Z,75095.66
2022-09-25T22:06:43.708Z,75093.63
2022-09-25T22:09:15.169Z,75099.75
2022-09-25T22:11:43.625Z,75103.81
2022-09-25T22:14:15.798Z,75107.91
2022-09-25T22:16:45.859Z,75109.94
2022-09-25T22:19:15.524Z,75111.97
2022-09-25T22:21:44.960Z,75111.97
2022-09-25T22:24:14.469Z,75116.06
2022-09-25T22:26:44.843Z,75107.91
2022-09-25T22:29:13.738Z,75116.06
2022-09-25T22:31:43.370Z,75111.97
2022-09-25T22:34:18.272Z,75120.13
2022-09-25T22:36:46.771Z,75118.09
2022-09-25T22:39:18.953Z,75118.09
2022-09-25T22:41:49.427Z,75111.97
2022-09-25T22:44:17.450Z,75111.97
2022-09-25T22:46:45.501Z,75107.91
2022-09-25T22:49:13.466Z,75105.84
2022-09-25T22:51:41.367Z,75105.84
2022-09-25T22:54:09.180Z,75099.75
2022-09-25T22:56:38.391Z,75099.75
2022-09-25T22:59:08.450Z,75093.63
2022-09-25T23:01:38.720Z,75091.59
2022-09-25T23:04:08.339Z,75095.66
2022-09-25T23:06:36.837Z,75095.66
2022-09-25T23:09:07.871Z,75099.75
2022-09-25T23:11:35.958Z,75099.75
2022-09-25T23:14:07.482Z,75099.75
2022-09-25T23:16:36.093Z,75091.59
2022-09-25T23:19:04.435Z,75099.75
2022-09-25T23:21:33.436Z,75095.66
2022-09-25T23:24:03.188Z,75103.81
2022-09-25T23:26:31.620Z,75101.78
2022-09-25T23:29:01.684Z,75107.91
2022-09-25T23:31:32.310Z,75107.91
2022-09-25T23:34:00.636Z,75107.91
2022-09-25T23:36:29.254Z,75105.84
2022-09-25T23:39:00.083Z,75095.66
2022-09-25T23:41:30.934Z,75083.44
2022-09-25T23:44:00.290Z,75091.59
2022-09-25T23:46:31.432Z,75083.44
2022-09-25T23:49:00.093Z,75083.44
2022-09-25T23:51:28.556Z,75083.44
2022-09-25T23:53:57.924Z,75083.44
2022-09-25T23:56:27.457Z,75083.44
2022-09-25T23:58:57.515Z,75083.44
